createdAt,value
2022-10-07T00:01:08.331Z,99.90
2022-10-07T00:03:37.077Z,99.90
2022-10-07T00:06:07.929Z,99.90
2022-10-07T00:08:37.314Z,99.90
2022-10-07T00:11:07.601Z,99.90
2022-10-07T00:13:38.666Z,99.90
2022-10-07T00:16:10.153Z,99.90
2022-10-07T00:18:38.872Z,99.90
2022-10-07T00:21:08.461Z,99.90
2022-10-07T00:23:37.127Z,99.90
2022-10-07T00:26:06.445Z,99.90
2022-10-07T00:28:35.526Z,99.90
2022-10-07T00:31:05.904Z,99.90
2022-10-07T00:33:38.542Z,99.90
2022-10-07T00:36:08.548Z,99.90
2022-10-07T00:38:36.866Z,99.90
2022-10-07T00:41:05.066Z,99.90
2022-10-07T00:43:33.977Z,99.90
2022-10-07T00:46:08.406Z,99.90
2022-10-07T00:48:39.472Z,99.90
2022-10-07T00:51:09.312Z,99.90
2022-10-07T00:53:40.043Z,99.90
2022-10-07T00:56:11.359Z,99.90
2022-10-07T00:58:41.973Z,99.90
2022-10-07T01:01:10.080Z,99.90
2022-10-07T01:03:53.546Z,99.90
2022-10-07T01:06:22.174Z,99.90
2022-10-07T01:08:52.782Z,99.90
2022-10-07T01:11:34.822Z,99.90
2022-10-07T01:14:10.276Z,99.90
2022-10-07T01:16:50.029Z,99.90
2022-10-07T01:19:37.714Z,99.90
2022-10-07T01:22:20.804Z,99.90
2022-10-07T01:24:58.382Z,99.90
2022-10-07T01:27:30.086Z,99.90
2022-10-07T01:30:02.891Z,99.90
2022-10-07T01:32:36.767Z,99.90
2022-10-07T01:35:08.877Z,99.90
2022-10-07T01:37:42.039Z,99.90
2022-10-07T01:40:15.087Z,99.90
2022-10-07T01:42:46.087Z,99.90
2022-10-07T01:45:21.332Z,99.90
2022-10-07T01:47:49.415Z,99.90
2022-10-07T01:50:19.631Z,99.90
2022-10-07T01:53:01.038Z,99.90
2022-10-07T01:55:45.393Z,99.90
2022-10-07T01:58:31.163Z,99.90
2022-10-07T02:01:09.814Z,99.90
2022-10-07T02:04:00.026Z,99.90
2022-10-07T02:06:39.311Z,99.90
2022-10-07T02:09:17.530Z,99.90
2022-10-07T02:11:50.374Z,99.90
2022-10-07T02:14:25.174Z,99.90
2022-10-07T02:16:57.818Z,99.90
2022-10-07T02:19:32.610Z,99.90
2022-10-07T02:22:03.270Z,99.90
2022-10-07T02:24:35.510Z,99.90
2022-10-07T02:27:11.815Z,99.90
2022-10-07T02:29:44.324Z,99.90
2022-10-07T02:32:16.793Z,99.90
2022-10-07T02:34:46.424Z,99.90
2022-10-07T02:37:19.727Z,99.90
2022-10-07T02:39:49.206Z,99.90
2022-10-07T02:42:25.734Z,99.90
2022-10-07T02:45:02.095Z,99.90
2022-10-07T02:47:44.201Z,99.90
2022-10-07T02:50:20.906Z,99.90
2022-10-07T02:52:49.910Z,99.90
2022-10-07T02:55:22.657Z,99.90
2022-10-07T02:57:55.747Z,99.90
2022-10-07T03:00:25.579Z,99.90
2022-10-07T03:02:57.413Z,99.90
2022-10-07T03:05:34.933Z,99.90
2022-10-07T03:08:07.531Z,99.90
2022-10-07T03:10:36.471Z,99.90
2022-10-07T03:13:05.865Z,99.90
2022-10-07T03:15:42.527Z,99.90
2022-10-07T03:18:26.463Z,99.90
2022-10-07T03:21:00.141Z,99.90
2022-10-07T03:23:29.998Z,99.90
2022-10-07T03:25:59.597Z,99.90
2022-10-07T03:28:31.550Z,99.90
2022-10-07T03:31:07.614Z,99.90
2022-10-07T03:33:37.370Z,99.90
2022-10-07T03:36:08.166Z,99.90
2022-10-07T03:38:37.306Z,99.90
2022-10-07T03:41:06.333Z,99.90
2022-10-07T03:43:35.155Z,99.90
2022-10-07T03:46:07.669Z,99.90
2022-10-07T03:48:43.758Z,99.90
2022-10-07T03:51:11.799Z,99.90
2022-10-07T03:53:41.279Z,99.90
2022-10-07T03:56:09.564Z,99.90
2022-10-07T03:58:39.370Z,99.90
2022-10-07T04:01:15.118Z,99.90
2022-10-07T04:03:48.576Z,99.90
2022-10-07T04:06:23.412Z,99.90
2022-10-07T04:08:53.550Z,99.90
2022-10-07T04:11:21.870Z,99.90
2022-10-07T04:13:52.100Z,99.90
2022-10-07T04:16:23.068Z,99.90
2022-10-07T04:18:55.205Z,99.90
2022-10-07T04:21:23.984Z,99.90
2022-10-07T04:23:52.383Z,99.90
2022-10-07T04:26:20.527Z,99.90
2022-10-07T04:28:50.059Z,99.90
2022-10-07T04:31:22.241Z,99.90
2022-10-07T04:33:56.961Z,99.90
2022-10-07T04:36:29.625Z,99.90
2022-10-07T04:39:09.833Z,99.90
2022-10-07T04:41:47.141Z,99.90
2022-10-07T04:44:20.421Z,99.90
2022-10-07T04:47:06.990Z,99.90
2022-10-07T04:49:37.812Z,99.90
2022-10-07T04:52:08.373Z,99.90
2022-10-07T04:54:39.307Z,99.90
2022-10-07T04:57:09.946Z,99.90
2022-10-07T04:59:42.499Z,99.90
2022-10-07T05:02:13.801Z,99.90
2022-10-07T05:04:42.027Z,99.90
2022-10-07T05:07:10.526Z,99.90
2022-10-07T05:09:38.715Z,99.90
2022-10-07T05:12:07.250Z,99.90
2022-10-07T05:14:35.311Z,99.90
2022-10-07T05:17:04.734Z,99.90
2022-10-07T05:19:36.638Z,99.90
2022-10-07T05:22:04.702Z,99.90
2022-10-07T05:24:33.407Z,99.90
2022-10-07T05:27:02.834Z,99.90
2022-10-07T05:29:30.836Z,99.90
2022-10-07T05:32:03.938Z,99.90
2022-10-07T05:34:34.001Z,99.90
2022-10-07T05:37:03.383Z,99.90
2022-10-07T05:39:31.478Z,99.90
2022-10-07T05:42:06.867Z,99.90
2022-10-07T05:44:41.499Z,99.90
2022-10-07T05:47:09.844Z,99.90
2022-10-07T05:49:38.053Z,99.90
2022-10-07T05:52:08.131Z,99.90
2022-10-07T05:54:37.144Z,99.90
2022-10-07T05:57:05.483Z,99.90
2022-10-07T05:59:35.418Z,99.90
2022-10-07T06:05:28.212Z,99.90
2022-10-07T06:07:57.595Z,99.90
2022-10-07T06:10:44.035Z,99.90
2022-10-07T06:13:12.065Z,99.90
2022-10-07T06:15:42.945Z,99.90
2022-10-07T06:18:10.974Z,99.90
2022-10-07T06:20:39.703Z,99.90
2022-10-07T06:23:09.114Z,99.90
2022-10-07T06:25:37.117Z,99.90
2022-10-07T06:28:05.299Z,99.90
2022-10-07T06:30:33.643Z,99.90
2022-10-07T06:33:03.059Z,99.90
2022-10-07T06:35:31.316Z,99.90
2022-10-07T06:37:59.678Z,99.90
2022-10-07T06:40:29.135Z,99.90
2022-10-07T06:42:57.144Z,99.90
2022-10-07T06:45:32.304Z,99.90
2022-10-07T06:48:00.650Z,99.90
2022-10-07T06:50:29.240Z,99.90
2022-10-07T06:52:57.870Z,99.90
2022-10-07T06:55:28.894Z,99.90
2022-10-07T06:57:57.404Z,99.90
2022-10-07T07:00:25.752Z,99.90
2022-10-07T07:02:53.960Z,99.90
2022-10-07T07:05:23.460Z,99.90
2022-10-07T07:07:52.183Z,99.90
2022-10-07T07:10:20.197Z,99.90
2022-10-07T07:12:55.712Z,99.90
2022-10-07T07:15:24.136Z,99.90
2022-10-07T07:17:52.258Z,99.90
2022-10-07T07:20:21.270Z,99.90
2022-10-07T07:22:50.107Z,99.90
2022-10-07T07:25:18.301Z,99.90
2022-10-07T07:27:48.644Z,99.90
2022-10-07T07:30:23.027Z,99.90
2022-10-07T07:32:52.562Z,99.90
2022-10-07T07:35:20.614Z,99.90
2022-10-07T07:37:48.874Z,99.90
2022-10-07T07:40:16.993Z,99.90
2022-10-07T07:42:46.739Z,99.90
2022-10-07T07:45:15.402Z,99.90
2022-10-07T07:47:49.238Z,99.90
2022-10-07T07:50:19.031Z,99.90
2022-10-07T07:52:47.978Z,99.90
2022-10-07T07:55:16.243Z,99.90
2022-10-07T07:57:44.595Z,99.90
2022-10-07T08:00:15.306Z,99.90
2022-10-07T08:02:53.787Z,99.90
2022-10-07T08:05:24.120Z,99.90
2022-10-07T08:07:54.886Z,99.90
2022-10-07T08:10:25.224Z,99.90
2022-10-07T08:12:53.194Z,99.90
2022-10-07T08:15:21.278Z,99.90
2022-10-07T08:17:50.115Z,99.90
2022-10-07T08:20:20.095Z,99.90
2022-10-07T08:22:49.696Z,99.90
2022-10-07T08:25:18.341Z,99.90
2022-10-07T08:27:47.265Z,99.90
2022-10-07T08:30:16.032Z,99.90
2022-10-07T08:32:44.099Z,99.90
2022-10-07T08:35:12.143Z,99.90
2022-10-07T08:37:44.445Z,99.90
2022-10-07T08:40:16.897Z,99.90
2022-10-07T08:42:46.129Z,99.90
2022-10-07T08:45:20.437Z,99.90
2022-10-07T08:47:50.289Z,99.90
2022-10-07T08:50:23.167Z,99.90
2022-10-07T08:52:59.111Z,99.90
2022-10-07T08:55:36.624Z,99.90
2022-10-07T08:58:37.639Z,99.90
2022-10-07T09:01:18.651Z,99.90
2022-10-07T09:03:56.066Z,99.90
2022-10-07T09:06:29.681Z,99.90
2022-10-07T09:09:04.921Z,99.90
2022-10-07T09:11:35.647Z,99.90
2022-10-07T09:14:17.030Z,99.90
2022-10-07T09:16:47.340Z,99.90
2022-10-07T09:19:23.312Z,99.90
2022-10-07T09:21:52.199Z,99.90
2022-10-07T09:24:24.478Z,99.90
2022-10-07T09:26:55.140Z,99.90
2022-10-07T09:29:25.070Z,99.90
2022-10-07T09:31:53.455Z,99.90
2022-10-07T09:34:24.094Z,99.90
2022-10-07T09:37:13.866Z,99.90
2022-10-07T09:39:44.574Z,99.90
2022-10-07T09:42:34.950Z,99.90
2022-10-07T09:45:06.585Z,99.90
2022-10-07T09:47:40.345Z,99.90
2022-10-07T09:50:33.064Z,99.90
2022-10-07T09:53:03.188Z,99.90
2022-10-07T09:55:37.625Z,99.90
2022-10-07T09:58:07.632Z,99.90
2022-10-07T10:00:44.025Z,99.90
2022-10-07T10:03:12.246Z,99.90
2022-10-07T10:05:52.360Z,99.90
2022-10-07T10:08:26.139Z,99.90
2022-10-07T10:10:56.173Z,99.90
2022-10-07T10:13:30.982Z,97.90
2022-10-07T10:15:59.693Z,93.80
2022-10-07T10:18:34.358Z,92.90
2022-10-07T10:21:22.416Z,90.80
2022-10-07T10:23:52.564Z,90.40
2022-10-07T10:26:37.659Z,87.40
2022-10-07T10:29:26.401Z,89.70
2022-10-07T10:32:22.243Z,88.50
2022-10-07T10:34:58.059Z,86.60
2022-10-07T10:37:39.581Z,86.00
2022-10-07T10:40:19.677Z,88.10
2022-10-07T10:42:59.302Z,87.90
2022-10-07T10:45:36.528Z,85.80
2022-10-07T10:48:19.988Z,84.10
2022-10-07T10:50:56.425Z,83.20
2022-10-07T10:53:38.648Z,83.90
2022-10-07T10:56:24.574Z,83.30
2022-10-07T10:59:08.712Z,81.20
2022-10-07T11:01:38.660Z,82.60
2022-10-07T11:04:29.110Z,84.40
2022-10-07T11:07:01.335Z,83.60
2022-10-07T11:09:38.545Z,83.40
2022-10-07T11:12:15.215Z,82.50
2022-10-07T11:14:51.852Z,81.90
2022-10-07T11:17:24.440Z,83.80
2022-10-07T11:19:57.910Z,81.70
2022-10-07T11:22:33.947Z,79.00
2022-10-07T11:25:10.921Z,80.40
2022-10-07T11:27:39.796Z,80.70
2022-10-07T11:30:17.753Z,79.60
2022-10-07T11:32:50.656Z,81.00
2022-10-07T11:35:26.781Z,80.90
2022-10-07T11:38:01.602Z,80.10
2022-10-07T11:40:34.602Z,80.50
2022-10-07T11:43:08.996Z,79.10
2022-10-07T11:45:42.739Z,78.40
2022-10-07T11:48:15.472Z,74.00
2022-10-07T11:50:56.070Z,76.20
2022-10-07T11:53:27.537Z,78.80
2022-10-07T11:56:01.164Z,79.70
2022-10-07T11:58:33.858Z,78.70
2022-10-07T12:01:41.142Z,77.90
2022-10-07T12:04:26.126Z,78.50
2022-10-07T12:07:31.223Z,78.00
2022-10-07T12:10:21.870Z,77.70
2022-10-07T12:12:54.154Z,77.60
2022-10-07T12:15:34.012Z,78.70
2022-10-07T12:18:28.375Z,80.10
2022-10-07T12:21:05.490Z,77.60
2022-10-07T12:24:06.075Z,80.40
2022-10-07T12:26:46.184Z,79.30
2022-10-07T12:29:50.822Z,78.30
2022-10-07T12:32:46.076Z,77.80
2022-10-07T12:35:53.996Z,76.00
2022-10-07T12:38:28.277Z,74.30
2022-10-07T12:41:25.558Z,75.80
2022-10-07T12:44:07.086Z,75.70
2022-10-07T12:46:42.573Z,75.60
2022-10-07T12:49:20.023Z,77.40
2022-10-07T12:51:48.359Z,77.00
2022-10-07T12:54:20.156Z,77.80
2022-10-07T12:56:49.554Z,80.30
2022-10-07T12:59:50.586Z,77.10
2022-10-07T13:03:03.847Z,78.20
2022-10-07T13:06:22.229Z,78.20
2022-10-07T13:09:22.680Z,78.60
2022-10-07T13:12:27.894Z,76.40
2022-10-07T13:15:08.162Z,76.30
2022-10-07T13:17:44.733Z,78.00
2022-10-07T13:20:32.702Z,77.60
2022-10-07T13:23:07.922Z,78.60
2022-10-07T13:25:36.464Z,76.60
2022-10-07T13:28:06.522Z,79.10
2022-10-07T13:30:40.901Z,80.20
2022-10-07T13:33:26.188Z,78.10
2022-10-07T13:36:07.677Z,80.30
2022-10-07T13:38:37.118Z,81.00
2022-10-07T13:41:09.534Z,81.00
2022-10-07T13:43:38.602Z,83.40
2022-10-07T13:46:10.395Z,84.60
2022-10-07T13:48:45.619Z,84.50
2022-10-07T13:51:25.300Z,84.70
2022-10-07T13:53:59.145Z,84.80
2022-10-07T13:56:31.758Z,88.30
2022-10-07T13:59:00.914Z,86.00
2022-10-07T14:01:31.027Z,86.00
2022-10-07T14:04:25.276Z,88.20
2022-10-07T14:07:01.039Z,86.80
2022-10-07T14:09:43.350Z,88.50
2022-10-07T14:12:15.710Z,88.60
2022-10-07T14:14:45.941Z,88.20
2022-10-07T14:17:24.691Z,87.80
2022-10-07T14:19:54.384Z,88.10
2022-10-07T14:22:29.069Z,88.70
2022-10-07T14:25:01.514Z,89.10
2022-10-07T14:28:07.506Z,88.60
2022-10-07T14:30:56.645Z,89.50
2022-10-07T14:33:53.431Z,89.50
2022-10-07T14:36:23.477Z,89.80
2022-10-07T14:38:52.626Z,90.50
2022-10-07T14:41:24.106Z,90.60
2022-10-07T14:43:52.953Z,90.30
2022-10-07T14:46:23.577Z,90.00
2022-10-07T14:48:53.544Z,90.10
2022-10-07T14:51:23.908Z,89.20
2022-10-07T14:53:55.118Z,90.20
2022-10-07T14:56:29.117Z,90.50
2022-10-07T14:58:57.090Z,89.30
2022-10-07T15:01:25.661Z,89.80
2022-10-07T15:03:53.783Z,88.70
2022-10-07T15:06:22.218Z,90.70
2022-10-07T15:08:50.428Z,89.20
2022-10-07T15:11:19.958Z,89.70
2022-10-07T15:13:50.977Z,89.50
2022-10-07T15:16:21.203Z,89.80
2022-10-07T15:18:52.442Z,89.20
2022-10-07T15:21:21.810Z,90.30
2022-10-07T15:23:52.484Z,90.30
2022-10-07T15:26:23.589Z,90.90
2022-10-07T15:28:54.164Z,91.50
2022-10-07T15:31:23.552Z,91.80
2022-10-07T15:33:51.733Z,91.50
2022-10-07T15:36:19.778Z,91.60
2022-10-07T15:38:47.817Z,91.70
2022-10-07T15:41:30.404Z,92.10
2022-10-07T15:44:00.818Z,92.20
2022-10-07T15:46:29.143Z,92.90
2022-10-07T15:48:57.771Z,93.20
2022-10-07T15:51:27.227Z,93.80
2022-10-07T15:53:55.356Z,94.20
2022-10-07T15:56:25.273Z,94.90
2022-10-07T15:58:53.975Z,95.10
2022-10-07T16:01:26.277Z,95.40
2022-10-07T16:03:54.361Z,95.00
2022-10-07T16:06:25.364Z,95.90
2022-10-07T16:08:57.753Z,96.00
2022-10-07T16:11:26.395Z,96.20
2022-10-07T16:13:54.683Z,97.20
2022-10-07T16:16:26.098Z,96.90
2022-10-07T16:18:57.453Z,97.20
2022-10-07T16:21:29.055Z,97.40
2022-10-07T16:23:58.927Z,97.90
2022-10-07T16:26:30.029Z,98.30
2022-10-07T16:29:17.454Z,98.50
2022-10-07T16:31:48.359Z,99.00
2022-10-07T16:34:18.448Z,99.90
2022-10-07T16:36:47.698Z,99.90
2022-10-07T16:39:17.669Z,99.90
2022-10-07T16:41:46.624Z,99.90
2022-10-07T16:44:15.791Z,99.90
2022-10-07T16:46:44.512Z,99.90
2022-10-07T16:49:15.960Z,99.90
2022-10-07T16:51:44.580Z,99.90
2022-10-07T16:54:15.539Z,99.90
2022-10-07T16:56:46.890Z,99.90
2022-10-07T16:59:23.161Z,99.90
2022-10-07T17:01:57.407Z,1.00
2022-10-07T17:04:26.836Z,1.00
2022-10-07T17:06:55.126Z,1.00
2022-10-07T17:09:24.743Z,1.00
2022-10-07T17:11:52.968Z,10.40
2022-10-07T17:14:22.942Z,45.10
2022-10-07T17:16:53.093Z,49.60
2022-10-07T17:19:22.210Z,90.70
2022-10-07T17:21:52.875Z,93.00
2022-10-07T17:24:23.161Z,99.90
2022-10-07T17:26:52.463Z,99.90
2022-10-07T17:29:23.284Z,99.90
2022-10-07T17:31:51.575Z,99.90
2022-10-07T17:34:21.024Z,99.90
2022-10-07T17:36:51.279Z,99.90
2022-10-07T17:39:19.941Z,99.90
2022-10-07T17:41:48.397Z,99.90
2022-10-07T17:44:16.536Z,99.90
2022-10-07T17:46:44.577Z,99.90
2022-10-07T17:49:14.157Z,99.90
2022-10-07T17:51:43.788Z,99.90
2022-10-07T17:54:14.482Z,99.90
2022-10-07T17:56:47.479Z,99.90
2022-10-07T17:59:15.546Z,99.90
2022-10-07T18:01:44.425Z,99.90
2022-10-07T18:04:15.167Z,99.90
2022-10-07T18:06:43.784Z,99.90
2022-10-07T18:09:18.353Z,99.90
2022-10-07T18:12:03.819Z,99.90
2022-10-07T18:14:53.475Z,99.90
2022-10-07T18:17:21.994Z,99.90
2022-10-07T18:19:49.976Z,99.90
2022-10-07T18:22:19.323Z,99.90
2022-10-07T18:24:49.678Z,99.90
2022-10-07T18:27:17.699Z,99.90
2022-10-07T18:29:45.829Z,99.90
2022-10-07T18:32:13.897Z,99.90
2022-10-07T18:34:41.937Z,99.90
2022-10-07T18:37:09.954Z,99.90
2022-10-07T18:39:38.820Z,99.90
2022-10-07T18:42:08.226Z,99.90
2022-10-07T18:44:36.750Z,99.90
2022-10-07T18:47:04.893Z,99.90
2022-10-07T18:49:32.902Z,99.90
2022-10-07T18:52:00.924Z,99.90
2022-10-07T18:54:28.988Z,99.90
2022-10-07T18:56:56.949Z,99.90
2022-10-07T18:59:26.376Z,99.90
2022-10-07T19:01:54.440Z,99.90
2022-10-07T19:04:22.528Z,99.90
2022-10-07T19:06:50.543Z,99.90
2022-10-07T19:09:20.776Z,99.90
2022-10-07T19:11:49.498Z,99.90
2022-10-07T19:14:16.822Z,99.90
2022-10-07T19:16:49.063Z,99.90
2022-10-07T19:19:19.245Z,99.90
2022-10-07T19:21:48.789Z,99.90
2022-10-07T19:24:17.191Z,99.90
2022-10-07T19:26:48.305Z,99.90
2022-10-07T19:29:17.869Z,99.90
2022-10-07T19:31:49.976Z,99.90
2022-10-07T19:34:20.142Z,99.90
2022-10-07T19:36:48.741Z,99.90
2022-10-07T19:39:18.666Z,99.90
2022-10-07T19:41:48.090Z,99.90
2022-10-07T19:44:16.664Z,99.90
2022-10-07T19:46:44.741Z,99.90
2022-10-07T19:49:14.120Z,99.90
2022-10-07T19:51:42.292Z,99.90
2022-10-07T19:54:12.016Z,99.90
2022-10-07T19:56:41.327Z,99.90
2022-10-07T19:59:10.647Z,99.90
2022-10-07T20:01:41.427Z,99.90
2022-10-07T20:04:12.620Z,99.90
2022-10-07T20:06:42.091Z,99.90
2022-10-07T20:09:12.058Z,99.90
2022-10-07T20:11:40.383Z,99.90
2022-10-07T20:14:09.904Z,99.90
2022-10-07T20:16:39.184Z,99.90
2022-10-07T20:19:08.986Z,99.90
2022-10-07T20:21:39.248Z,99.90
2022-10-07T20:24:09.850Z,99.90
2022-10-07T20:26:39.577Z,99.80
2022-10-07T20:29:10.131Z,99.90
2022-10-07T20:31:40.404Z,99.90
2022-10-07T20:34:11.159Z,99.90
2022-10-07T20:36:41.318Z,98.30
2022-10-07T20:39:34.281Z,98.70
2022-10-07T20:42:19.975Z,99.70
2022-10-07T20:44:49.025Z,99.70
2022-10-07T20:47:17.205Z,99.80
2022-10-07T20:49:45.196Z,99.90
2022-10-07T20:52:16.827Z,99.90
2022-10-07T20:54:47.185Z,99.90
2022-10-07T20:57:17.007Z,99.90
2022-10-07T20:59:45.265Z,99.90
2022-10-07T21:02:14.505Z,99.90
2022-10-07T21:04:43.143Z,99.90
2022-10-07T21:07:11.368Z,99.90
2022-10-07T21:09:39.876Z,99.90
2022-10-07T21:12:13.732Z,99.90
2022-10-07T21:14:42.946Z,99.90
2022-10-07T21:17:12.074Z,99.90
2022-10-07T21:19:40.159Z,99.90
2022-10-07T21:22:09.040Z,99.90
2022-10-07T21:24:37.084Z,99.90
2022-10-07T21:27:07.600Z,99.90
2022-10-07T21:29:40.795Z,99.90
2022-10-07T21:32:09.532Z,99.90
2022-10-07T21:34:37.706Z,99.90
2022-10-07T21:37:07.503Z,99.90
2022-10-07T21:39:35.615Z,99.90
2022-10-07T21:42:04.015Z,99.90
2022-10-07T21:44:33.489Z,99.90
2022-10-07T21:47:04.780Z,99.90
2022-10-07T21:49:32.762Z,99.90
2022-10-07T21:52:00.737Z,99.90
2022-10-07T21:54:30.185Z,99.90
2022-10-07T21:56:58.177Z,99.90
2022-10-07T21:59:26.247Z,99.90
2022-10-07T22:01:54.361Z,99.90
2022-10-07T22:04:25.402Z,99.90
2022-10-07T22:07:10.952Z,99.90
2022-10-07T22:09:38.957Z,99.90
2022-10-07T22:12:07.126Z,99.90
2022-10-07T22:14:35.158Z,99.90
2022-10-07T22:17:03.742Z,99.90
2022-10-07T22:19:33.171Z,99.90
2022-10-07T22:22:01.175Z,99.90
2022-10-07T22:24:29.415Z,99.90
2022-10-07T22:26:57.556Z,99.90
2022-10-07T22:29:25.659Z,99.90
2022-10-07T22:31:53.880Z,99.90
2022-10-07T22:34:42.248Z,99.90
2022-10-07T22:37:11.708Z,99.90
2022-10-07T22:39:41.062Z,99.90
2022-10-07T22:42:09.403Z,99.90
2022-10-07T22:44:37.351Z,99.90
2022-10-07T22:47:05.410Z,99.90
2022-10-07T22:49:33.422Z,99.90
2022-10-07T22:52:02.645Z,99.90
2022-10-07T22:54:31.973Z,99.90
2022-10-07T22:57:00.452Z,99.90
2022-10-07T22:59:28.539Z,99.90
2022-10-07T23:01:56.558Z,99.90
2022-10-07T23:04:24.576Z,99.90
2022-10-07T23:06:52.943Z,99.90
2022-10-07T23:09:21.660Z,99.90
2022-10-07T23:11:51.218Z,99.90
2022-10-07T23:14:19.178Z,99.90
2022-10-07T23:16:47.156Z,99.90
2022-10-07T23:19:15.214Z,99.90
2022-10-07T23:21:44.496Z,99.90
2022-10-07T23:24:14.370Z,99.90
2022-10-07T23:26:43.676Z,99.90
2022-10-07T23:29:13.904Z,99.90
2022-10-07T23:31:42.045Z,99.90
2022-10-07T23:34:11.933Z,99.90
2022-10-07T23:36:40.747Z,99.90
2022-10-07T23:39:08.762Z,99.90
2022-10-07T23:41:37.038Z,99.90
2022-10-07T23:44:05.350Z,99.90
2022-10-07T23:46:36.292Z,99.90
2022-10-07T23:49:05.021Z,99.90
2022-10-07T23:51:35.306Z,99.90
2022-10-07T23:54:04.685Z,99.90
2022-10-07T23:56:33.650Z,99.90
2022-10-07T23:59:02.402Z,99.90
